sensor_id;sensor_type;location;lat;lon;timestamp;P1;durP1;ratioP1;P2;durP2;ratioP2
26277;SDS011;14000;52.056;8.510;2023-01-20T00:01:32;74.03;;;35.03;;
26277;SDS011;14000;52.056;8.510;2023-01-20T00:04:00;68.67;;;33.77;;
26277;SDS011;14000;52.056;8.510;2023-01-20T00:06:26;71.03;;;34.60;;
26277;SDS011;14000;52.056;8.510;2023-01-20T00:08:53;70.97;;;33.80;;
26277;SDS011;14000;52.056;8.510;2023-01-20T00:11:20;72.00;;;35.20;;
26277;SDS011;14000;52.056;8.510;2023-01-20T00:13:46;70.40;;;34.80;;
26277;SDS011;14000;52.056;8.510;2023-01-20T00:16:12;72.83;;;34.27;;
26277;SDS011;14000;52.056;8.510;2023-01-20T00:18:38;71.13;;;32.93;;
26277;SDS011;14000;52.056;8.510;2023-01-20T00:21:05;73.87;;;33.77;;
26277;SDS011;14000;52.056;8.510;2023-01-20T00:23:32;72.03;;;32.87;;
26277;SDS011;14000;52.056;8.510;2023-01-20T00:25:58;79.03;;;34.30;;
26277;SDS011;14000;52.056;8.510;2023-01-20T00:28:27;66.23;;;32.23;;
26277;SDS011;14000;52.056;8.510;2023-01-20T00:30:53;75.90;;;35.03;;
26277;SDS011;14000;52.056;8.510;2023-01-20T00:33:18;76.93;;;34.97;;
26277;SDS011;14000;52.056;8.510;2023-01-20T00:35:44;76.73;;;35.63;;
26277;SDS011;14000;52.056;8.510;2023-01-20T00:38:09;78.43;;;35.73;;
26277;SDS011;14000;52.056;8.510;2023-01-20T00:40:35;75.07;;;34.13;;
26277;SDS011;14000;52.056;8.510;2023-01-20T00:43:00;81.60;;;37.63;;
26277;SDS011;14000;52.056;8.510;2023-01-20T00:45:26;84.53;;;37.03;;
26277;SDS011;14000;52.056;8.510;2023-01-20T00:47:52;80.70;;;35.60;;
26277;SDS011;14000;52.056;8.510;2023-01-20T00:50:18;71.50;;;34.60;;
26277;SDS011;14000;52.056;8.510;2023-01-20T00:52:43;72.33;;;33.67;;
26277;SDS011;14000;52.056;8.510;2023-01-20T00:55:09;72.40;;;34.80;;
26277;SDS011;14000;52.056;8.510;2023-01-20T00:57:34;83.33;;;34.90;;
26277;SDS011;14000;52.056;8.510;2023-01-20T01:00:00;78.93;;;36.80;;
26277;SDS011;14000;52.056;8.510;2023-01-20T01:02:25;82.57;;;38.60;;
26277;SDS011;14000;52.056;8.510;2023-01-20T01:04:51;75.60;;;34.33;;
26277;SDS011;14000;52.056;8.510;2023-01-20T01:07:16;80.20;;;35.43;;
26277;SDS011;14000;52.056;8.510;2023-01-20T01:09:42;78.80;;;36.30;;
26277;SDS011;14000;52.056;8.510;2023-01-20T01:12:08;91.00;;;40.93;;
26277;SDS011;14000;52.056;8.510;2023-01-20T01:14:34;78.53;;;35.30;;
26277;SDS011;14000;52.056;8.510;2023-01-20T01:16:59;74.73;;;35.67;;
26277;SDS011;14000;52.056;8.510;2023-01-20T01:19:25;75.37;;;35.37;;
26277;SDS011;14000;52.056;8.510;2023-01-20T01:21:50;79.37;;;36.20;;
26277;SDS011;14000;52.056;8.510;2023-01-20T01:24:16;78.00;;;35.10;;
26277;SDS011;14000;52.056;8.510;2023-01-20T01:26:41;79.50;;;35.90;;
26277;SDS011;14000;52.056;8.510;2023-01-20T01:29:07;75.33;;;34.73;;
26277;SDS011;14000;52.056;8.510;2023-01-20T01:31:32;81.77;;;36.13;;
26277;SDS011;14000;52.056;8.510;2023-01-20T01:33:59;80.97;;;38.63;;
26277;SDS011;14000;52.056;8.510;2023-01-20T01:36:24;85.53;;;38.87;;
26277;SDS011;14000;52.056;8.510;2023-01-20T01:38:50;71.10;;;33.87;;
26277;SDS011;14000;52.056;8.510;2023-01-20T01:41:15;78.13;;;36.50;;
26277;SDS011;14000;52.056;8.510;2023-01-20T01:46:44;76.53;;;35.83;;
26277;SDS011;14000;52.056;8.510;2023-01-20T01:51:58;76.03;;;36.67;;
26277;SDS011;14000;52.056;8.510;2023-01-20T01:54:31;73.80;;;34.93;;
26277;SDS011;14000;52.056;8.510;2023-01-20T01:56:59;70.63;;;32.90;;
26277;SDS011;14000;52.056;8.510;2023-01-20T01:59:25;78.00;;;35.30;;
26277;SDS011;14000;52.056;8.510;2023-01-20T02:01:51;72.33;;;35.40;;
26277;SDS011;14000;52.056;8.510;2023-01-20T02:04:21;74.60;;;35.23;;
26277;SDS011;14000;52.056;8.510;2023-01-20T02:06:58;82.60;;;38.00;;
26277;SDS011;14000;52.056;8.510;2023-01-20T02:09:29;89.37;;;38.77;;
26277;SDS011;14000;52.056;8.510;2023-01-20T02:11:56;79.87;;;37.03;;
26277;SDS011;14000;52.056;8.510;2023-01-20T02:14:30;82.53;;;37.27;;
26277;SDS011;14000;52.056;8.510;2023-01-20T02:17:02;76.53;;;37.53;;
26277;SDS011;14000;52.056;8.510;2023-01-20T02:25:19;75.47;;;34.87;;
26277;SDS011;14000;52.056;8.510;2023-01-20T02:33:36;77.67;;;36.87;;
26277;SDS011;14000;52.056;8.510;2023-01-20T02:36:27;79.63;;;37.23;;
26277;SDS011;14000;52.056;8.510;2023-01-20T02:38:59;82.77;;;38.47;;
26277;SDS011;14000;52.056;8.510;2023-01-20T02:41:38;83.10;;;38.50;;
26277;SDS011;14000;52.056;8.510;2023-01-20T02:46:59;72.43;;;36.13;;
26277;SDS011;14000;52.056;8.510;2023-01-20T02:52:11;88.20;;;39.97;;
26277;SDS011;14000;52.056;8.510;2023-01-20T02:54:41;79.57;;;39.23;;
26277;SDS011;14000;52.056;8.510;2023-01-20T02:57:11;82.57;;;40.03;;
26277;SDS011;14000;52.056;8.510;2023-01-20T02:59:40;96.13;;;42.93;;
26277;SDS011;14000;52.056;8.510;2023-01-20T03:02:12;95.47;;;41.67;;
26277;SDS011;14000;52.056;8.510;2023-01-20T03:04:49;92.83;;;43.13;;
26277;SDS011;14000;52.056;8.510;2023-01-20T03:07:19;93.17;;;42.20;;
26277;SDS011;14000;52.056;8.510;2023-01-20T03:09:48;88.00;;;41.60;;
26277;SDS011;14000;52.056;8.510;2023-01-20T03:12:17;98.83;;;43.70;;
26277;SDS011;14000;52.056;8.510;2023-01-20T03:14:48;92.83;;;43.53;;
26277;SDS011;14000;52.056;8.510;2023-01-20T03:17:16;101.17;;;43.87;;
26277;SDS011;14000;52.056;8.510;2023-01-20T03:19:46;114.40;;;49.97;;
26277;SDS011;14000;52.056;8.510;2023-01-20T03:22:11;94.23;;;44.23;;
26277;SDS011;14000;52.056;8.510;2023-01-20T03:24:37;98.70;;;44.83;;
26277;SDS011;14000;52.056;8.510;2023-01-20T03:27:05;108.63;;;46.80;;
26277;SDS011;14000;52.056;8.510;2023-01-20T03:29:31;108.10;;;48.23;;
26277;SDS011;14000;52.056;8.510;2023-01-20T03:31:58;89.97;;;44.10;;
26277;SDS011;14000;52.056;8.510;2023-01-20T03:34:26;87.03;;;42.97;;
26277;SDS011;14000;52.056;8.510;2023-01-20T03:36:54;89.40;;;43.40;;
26277;SDS011;14000;52.056;8.510;2023-01-20T03:39:21;83.80;;;41.30;;
26277;SDS011;14000;52.056;8.510;2023-01-20T03:41:51;88.90;;;40.70;;
26277;SDS011;14000;52.056;8.510;2023-01-20T03:44:21;83.50;;;41.83;;
26277;SDS011;14000;52.056;8.510;2023-01-20T03:47:13;86.03;;;43.27;;
26277;SDS011;14000;52.056;8.510;2023-01-20T03:49:46;90.13;;;41.90;;
26277;SDS011;14000;52.056;8.510;2023-01-20T03:55:47;91.80;;;43.07;;
26277;SDS011;14000;52.056;8.510;2023-01-20T03:58:00;97.00;;;42.03;;
26277;SDS011;14000;52.056;8.510;2023-01-20T04:00:33;96.27;;;43.13;;
26277;SDS011;14000;52.056;8.510;2023-01-20T04:03:03;86.87;;;42.87;;
26277;SDS011;14000;52.056;8.510;2023-01-20T04:05:37;87.67;;;41.80;;
26277;SDS011;14000;52.056;8.510;2023-01-20T04:08:05;96.40;;;43.03;;
26277;SDS011;14000;52.056;8.510;2023-01-20T04:10:34;84.50;;;42.87;;
26277;SDS011;14000;52.056;8.510;2023-01-20T04:13:02;92.33;;;42.73;;
26277;SDS011;14000;52.056;8.510;2023-01-20T04:15:31;108.03;;;47.07;;
26277;SDS011;14000;52.056;8.510;2023-01-20T04:18:17;88.20;;;44.83;;
26277;SDS011;14000;52.056;8.510;2023-01-20T04:20:46;87.60;;;42.37;;
26277;SDS011;14000;52.056;8.510;2023-01-20T04:23:24;85.40;;;41.80;;
26277;SDS011;14000;52.056;8.510;2023-01-20T04:25:57;89.97;;;44.70;;
26277;SDS011;14000;52.056;8.510;2023-01-20T04:28:23;90.83;;;42.87;;
26277;SDS011;14000;52.056;8.510;2023-01-20T04:30:49;90.47;;;42.93;;
26277;SDS011;14000;52.056;8.510;2023-01-20T04:33:15;107.67;;;48.60;;
26277;SDS011;14000;52.056;8.510;2023-01-20T04:35:41;91.97;;;44.63;;
26277;SDS011;14000;52.056;8.510;2023-01-20T04:38:06;89.13;;;43.20;;
26277;SDS011;14000;52.056;8.510;2023-01-20T04:40:32;95.77;;;43.00;;
26277;SDS011;14000;52.056;8.510;2023-01-20T04:42:58;86.77;;;41.93;;
26277;SDS011;14000;52.056;8.510;2023-01-20T04:45:23;95.10;;;44.00;;
26277;SDS011;14000;52.056;8.510;2023-01-20T04:47:49;87.73;;;43.93;;
26277;SDS011;14000;52.056;8.510;2023-01-20T04:50:14;93.63;;;43.17;;
26277;SDS011;14000;52.056;8.510;2023-01-20T04:52:41;83.87;;;42.33;;
26277;SDS011;14000;52.056;8.510;2023-01-20T04:55:07;106.27;;;46.90;;
26277;SDS011;14000;52.056;8.510;2023-01-20T04:57:33;94.87;;;43.10;;
26277;SDS011;14000;52.056;8.510;2023-01-20T04:59:59;98.17;;;43.13;;
26277;SDS011;14000;52.056;8.510;2023-01-20T05:02:24;88.97;;;41.77;;
26277;SDS011;14000;52.056;8.510;2023-01-20T05:04:50;90.43;;;41.87;;
26277;SDS011;14000;52.056;8.510;2023-01-20T05:07:15;92.17;;;43.27;;
26277;SDS011;14000;52.056;8.510;2023-01-20T05:09:41;91.43;;;42.67;;
26277;SDS011;14000;52.056;8.510;2023-01-20T05:12:07;88.43;;;40.73;;
26277;SDS011;14000;52.056;8.510;2023-01-20T05:14:32;93.10;;;43.80;;
26277;SDS011;14000;52.056;8.510;2023-01-20T05:16:58;89.70;;;41.43;;
26277;SDS011;14000;52.056;8.510;2023-01-20T05:19:23;85.93;;;40.70;;
26277;SDS011;14000;52.056;8.510;2023-01-20T05:21:49;84.30;;;40.80;;
26277;SDS011;14000;52.056;8.510;2023-01-20T05:24:14;86.90;;;40.63;;
26277;SDS011;14000;52.056;8.510;2023-01-20T05:26:43;93.43;;;41.17;;
26277;SDS011;14000;52.056;8.510;2023-01-20T05:29:09;89.13;;;40.43;;
26277;SDS011;14000;52.056;8.510;2023-01-20T05:31:34;89.77;;;40.63;;
26277;SDS011;14000;52.056;8.510;2023-01-20T05:34:02;82.77;;;38.30;;
26277;SDS011;14000;52.056;8.510;2023-01-20T05:36:28;76.57;;;36.97;;
26277;SDS011;14000;52.056;8.510;2023-01-20T05:38:54;80.13;;;39.13;;
26277;SDS011;14000;52.056;8.510;2023-01-20T05:41:20;81.63;;;36.63;;
26277;SDS011;14000;52.056;8.510;2023-01-20T05:43:46;75.17;;;37.33;;
26277;SDS011;14000;52.056;8.510;2023-01-20T05:46:11;78.27;;;37.67;;
26277;SDS011;14000;52.056;8.510;2023-01-20T05:48:37;76.77;;;36.20;;
26277;SDS011;14000;52.056;8.510;2023-01-20T05:51:02;72.80;;;36.27;;
26277;SDS011;14000;52.056;8.510;2023-01-20T05:53:28;71.00;;;35.83;;
26277;SDS011;14000;52.056;8.510;2023-01-20T05:55:57;70.97;;;35.67;;
26277;SDS011;14000;52.056;8.510;2023-01-20T05:58:24;78.77;;;37.23;;
26277;SDS011;14000;52.056;8.510;2023-01-20T06:00:53;71.43;;;35.70;;
26277;SDS011;14000;52.056;8.510;2023-01-20T06:03:19;73.53;;;35.73;;
26277;SDS011;14000;52.056;8.510;2023-01-20T06:05:45;69.87;;;34.00;;
26277;SDS011;14000;52.056;8.510;2023-01-20T06:08:13;69.10;;;34.33;;
26277;SDS011;14000;52.056;8.510;2023-01-20T06:10:38;74.47;;;35.10;;
26277;SDS011;14000;52.056;8.510;2023-01-20T06:13:04;78.03;;;35.67;;
26277;SDS011;14000;52.056;8.510;2023-01-20T06:15:30;69.50;;;33.83;;
26277;SDS011;14000;52.056;8.510;2023-01-20T06:17:55;68.60;;;33.43;;
26277;SDS011;14000;52.056;8.510;2023-01-20T06:20:21;77.77;;;36.20;;
26277;SDS011;14000;52.056;8.510;2023-01-20T06:22:46;78.00;;;36.23;;
26277;SDS011;14000;52.056;8.510;2023-01-20T06:25:12;75.13;;;37.13;;
26277;SDS011;14000;52.056;8.510;2023-01-20T06:27:37;80.87;;;35.43;;
26277;SDS011;14000;52.056;8.510;2023-01-20T06:30:04;74.93;;;34.47;;
26277;SDS011;14000;52.056;8.510;2023-01-20T06:32:30;80.83;;;35.87;;
26277;SDS011;14000;52.056;8.510;2023-01-20T06:34:56;77.67;;;35.20;;
26277;SDS011;14000;52.056;8.510;2023-01-20T06:37:21;70.73;;;33.73;;
26277;SDS011;14000;52.056;8.510;2023-01-20T06:39:47;78.90;;;37.17;;
26277;SDS011;14000;52.056;8.510;2023-01-20T06:42:12;80.03;;;35.37;;
26277;SDS011;14000;52.056;8.510;2023-01-20T06:44:38;81.50;;;37.40;;
26277;SDS011;14000;52.056;8.510;2023-01-20T06:47:04;79.40;;;35.70;;
26277;SDS011;14000;52.056;8.510;2023-01-20T06:49:29;75.60;;;36.10;;
26277;SDS011;14000;52.056;8.510;2023-01-20T06:51:57;71.77;;;35.57;;
26277;SDS011;14000;52.056;8.510;2023-01-20T06:54:23;79.10;;;36.30;;
26277;SDS011;14000;52.056;8.510;2023-01-20T06:56:49;85.03;;;38.13;;
26277;SDS011;14000;52.056;8.510;2023-01-20T06:59:14;92.77;;;41.03;;
26277;SDS011;14000;52.056;8.510;2023-01-20T07:01:40;78.90;;;37.07;;
26277;SDS011;14000;52.056;8.510;2023-01-20T07:04:05;76.77;;;36.57;;
26277;SDS011;14000;52.056;8.510;2023-01-20T07:06:36;77.70;;;35.90;;
26277;SDS011;14000;52.056;8.510;2023-01-20T07:09:03;88.03;;;40.03;;
26277;SDS011;14000;52.056;8.510;2023-01-20T07:11:30;84.43;;;37.80;;
26277;SDS011;14000;52.056;8.510;2023-01-20T07:13:56;84.37;;;38.57;;
26277;SDS011;14000;52.056;8.510;2023-01-20T07:16:22;81.27;;;37.60;;
26277;SDS011;14000;52.056;8.510;2023-01-20T07:18:49;85.43;;;37.73;;
26277;SDS011;14000;52.056;8.510;2023-01-20T07:21:15;80.30;;;36.60;;
26277;SDS011;14000;52.056;8.510;2023-01-20T07:23:41;86.80;;;38.13;;
26277;SDS011;14000;52.056;8.510;2023-01-20T07:26:11;83.47;;;38.37;;
26277;SDS011;14000;52.056;8.510;2023-01-20T07:28:41;80.73;;;35.57;;
26277;SDS011;14000;52.056;8.510;2023-01-20T07:31:08;82.13;;;38.10;;
26277;SDS011;14000;52.056;8.510;2023-01-20T07:33:36;85.47;;;38.37;;
26277;SDS011;14000;52.056;8.510;2023-01-20T07:36:02;83.00;;;37.93;;
26277;SDS011;14000;52.056;8.510;2023-01-20T07:38:29;83.63;;;38.87;;
26277;SDS011;14000;52.056;8.510;2023-01-20T07:40:56;76.67;;;35.90;;
26277;SDS011;14000;52.056;8.510;2023-01-20T07:43:22;79.63;;;36.73;;
26277;SDS011;14000;52.056;8.510;2023-01-20T07:45:48;81.40;;;37.37;;
26277;SDS011;14000;52.056;8.510;2023-01-20T07:48:13;86.87;;;39.17;;
26277;SDS011;14000;52.056;8.510;2023-01-20T07:50:39;86.77;;;37.00;;
26277;SDS011;14000;52.056;8.510;2023-01-20T07:53:04;87.83;;;38.33;;
26277;SDS011;14000;52.056;8.510;2023-01-20T07:55:30;80.70;;;38.37;;
26277;SDS011;14000;52.056;8.510;2023-01-20T07:57:57;75.57;;;35.83;;
26277;SDS011;14000;52.056;8.510;2023-01-20T08:00:22;88.20;;;39.23;;
26277;SDS011;14000;52.056;8.510;2023-01-20T08:02:48;77.30;;;35.47;;
26277;SDS011;14000;52.056;8.510;2023-01-20T08:05:14;76.40;;;36.20;;
26277;SDS011;14000;52.056;8.510;2023-01-20T08:07:40;89.33;;;40.60;;
26277;SDS011;14000;52.056;8.510;2023-01-20T08:10:06;91.43;;;41.10;;
26277;SDS011;14000;52.056;8.510;2023-01-20T08:12:31;94.53;;;40.27;;
26277;SDS011;14000;52.056;8.510;2023-01-20T08:14:57;95.33;;;40.00;;
26277;SDS011;14000;52.056;8.510;2023-01-20T08:17:22;90.73;;;39.87;;
26277;SDS011;14000;52.056;8.510;2023-01-20T08:19:48;83.43;;;38.13;;
26277;SDS011;14000;52.056;8.510;2023-01-20T08:22:14;84.73;;;38.10;;
26277;SDS011;14000;52.056;8.510;2023-01-20T08:24:39;117.40;;;54.13;;
26277;SDS011;14000;52.056;8.510;2023-01-20T08:27:05;106.07;;;48.37;;
26277;SDS011;14000;52.056;8.510;2023-01-20T08:29:31;96.27;;;40.53;;
26277;SDS011;14000;52.056;8.510;2023-01-20T08:31:58;80.50;;;37.07;;
26277;SDS011;14000;52.056;8.510;2023-01-20T08:34:24;85.13;;;38.03;;
26277;SDS011;14000;52.056;8.510;2023-01-20T08:36:50;92.37;;;42.17;;
26277;SDS011;14000;52.056;8.510;2023-01-20T08:39:18;82.17;;;37.83;;
26277;SDS011;14000;52.056;8.510;2023-01-20T08:41:44;83.73;;;37.93;;
26277;SDS011;14000;52.056;8.510;2023-01-20T08:44:11;90.27;;;40.23;;
26277;SDS011;14000;52.056;8.510;2023-01-20T08:46:38;76.97;;;34.57;;
26277;SDS011;14000;52.056;8.510;2023-01-20T08:49:09;82.20;;;38.63;;
26277;SDS011;14000;52.056;8.510;2023-01-20T08:51:36;76.50;;;35.73;;
26277;SDS011;14000;52.056;8.510;2023-01-20T08:54:02;74.93;;;36.67;;
26277;SDS011;14000;52.056;8.510;2023-01-20T08:56:28;80.00;;;37.17;;
26277;SDS011;14000;52.056;8.510;2023-01-20T08:58:57;74.53;;;35.50;;
26277;SDS011;14000;52.056;8.510;2023-01-20T09:01:24;76.37;;;35.03;;
26277;SDS011;14000;52.056;8.510;2023-01-20T09:03:51;74.13;;;37.07;;
26277;SDS011;14000;52.056;8.510;2023-01-20T09:06:17;73.47;;;35.87;;
26277;SDS011;14000;52.056;8.510;2023-01-20T09:08:44;67.83;;;33.83;;
26277;SDS011;14000;52.056;8.510;2023-01-20T09:11:13;67.33;;;34.00;;
26277;SDS011;14000;52.056;8.510;2023-01-20T09:13:41;74.10;;;35.60;;
26277;SDS011;14000;52.056;8.510;2023-01-20T09:16:07;74.40;;;33.83;;
26277;SDS011;14000;52.056;8.510;2023-01-20T09:18:37;74.87;;;36.13;;
26277;SDS011;14000;52.056;8.510;2023-01-20T09:21:03;70.03;;;33.80;;
26277;SDS011;14000;52.056;8.510;2023-01-20T09:23:31;65.23;;;32.17;;
26277;SDS011;14000;52.056;8.510;2023-01-20T09:25:58;73.43;;;34.70;;
26277;SDS011;14000;52.056;8.510;2023-01-20T09:28:24;71.10;;;32.60;;
26277;SDS011;14000;52.056;8.510;2023-01-20T09:30:54;70.90;;;32.87;;
26277;SDS011;14000;52.056;8.510;2023-01-20T09:33:22;66.17;;;32.10;;
26277;SDS011;14000;52.056;8.510;2023-01-20T09:35:52;67.37;;;32.33;;
26277;SDS011;14000;52.056;8.510;2023-01-20T09:38:19;69.40;;;33.20;;
26277;SDS011;14000;52.056;8.510;2023-01-20T09:44:11;64.87;;;31.53;;
26277;SDS011;14000;52.056;8.510;2023-01-20T09:53:20;64.50;;;30.53;;
26277;SDS011;14000;52.056;8.510;2023-01-20T09:55:58;65.37;;;31.00;;
26277;SDS011;14000;52.056;8.510;2023-01-20T09:58:33;61.33;;;31.80;;
26277;SDS011;14000;52.056;8.510;2023-01-20T10:06:54;58.83;;;30.70;;
26277;SDS011;14000;52.056;8.510;2023-01-20T10:09:48;57.33;;;28.60;;
26277;SDS011;14000;52.056;8.510;2023-01-20T10:12:29;54.53;;;28.13;;
26277;SDS011;14000;52.056;8.510;2023-01-20T10:15:03;62.67;;;29.27;;
26277;SDS011;14000;52.056;8.510;2023-01-20T10:17:33;54.57;;;27.77;;
26277;SDS011;14000;52.056;8.510;2023-01-20T10:22:52;56.77;;;27.47;;
26277;SDS011;14000;52.056;8.510;2023-01-20T10:25:27;55.00;;;27.97;;
26277;SDS011;14000;52.056;8.510;2023-01-20T10:28:21;51.40;;;25.07;;
26277;SDS011;14000;52.056;8.510;2023-01-20T10:30:54;49.87;;;25.20;;
26277;SDS011;14000;52.056;8.510;2023-01-20T10:33:27;51.30;;;24.33;;
26277;SDS011;14000;52.056;8.510;2023-01-20T10:35:56;47.00;;;22.00;;
26277;SDS011;14000;52.056;8.510;2023-01-20T10:41:12;54.07;;;25.47;;
26277;SDS011;14000;52.056;8.510;2023-01-20T10:43:44;48.47;;;23.33;;
26277;SDS011;14000;52.056;8.510;2023-01-20T10:46:24;44.23;;;21.50;;
26277;SDS011;14000;52.056;8.510;2023-01-20T10:57:09;45.70;;;21.77;;
26277;SDS011;14000;52.056;8.510;2023-01-20T10:59:48;43.13;;;21.30;;
26277;SDS011;14000;52.056;8.510;2023-01-20T11:02:27;41.53;;;19.90;;
26277;SDS011;14000;52.056;8.510;2023-01-20T11:04:59;36.47;;;18.43;;
26277;SDS011;14000;52.056;8.510;2023-01-20T11:07:27;40.27;;;19.43;;
26277;SDS011;14000;52.056;8.510;2023-01-20T11:09:55;33.90;;;16.80;;
26277;SDS011;14000;52.056;8.510;2023-01-20T11:12:22;34.03;;;16.43;;
26277;SDS011;14000;52.056;8.510;2023-01-20T11:14:50;31.00;;;14.93;;
26277;SDS011;14000;52.056;8.510;2023-01-20T11:17:18;32.73;;;15.77;;
26277;SDS011;14000;52.056;8.510;2023-01-20T11:19:52;32.53;;;15.50;;
26277;SDS011;14000;52.056;8.510;2023-01-20T11:22:29;34.63;;;17.00;;
26277;SDS011;14000;52.056;8.510;2023-01-20T11:24:59;33.93;;;16.37;;
26277;SDS011;14000;52.056;8.510;2023-01-20T11:27:36;31.10;;;15.73;;
26277;SDS011;14000;52.056;8.510;2023-01-20T11:30:07;34.00;;;15.53;;
26277;SDS011;14000;52.056;8.510;2023-01-20T11:32:46;34.53;;;16.70;;
26277;SDS011;14000;52.056;8.510;2023-01-20T11:35:55;35.63;;;16.17;;
26277;SDS011;14000;52.056;8.510;2023-01-20T11:38:49;31.97;;;15.50;;
26277;SDS011;14000;52.056;8.510;2023-01-20T11:41:23;32.57;;;15.33;;
26277;SDS011;14000;52.056;8.510;2023-01-20T11:43:56;32.33;;;16.10;;
26277;SDS011;14000;52.056;8.510;2023-01-20T11:49:10;28.97;;;15.20;;
26277;SDS011;14000;52.056;8.510;2023-01-20T11:51:49;33.60;;;16.47;;
26277;SDS011;14000;52.056;8.510;2023-01-20T11:54:27;34.70;;;16.23;;
26277;SDS011;14000;52.056;8.510;2023-01-20T11:56:55;31.87;;;15.50;;
26277;SDS011;14000;52.056;8.510;2023-01-20T11:59:25;28.93;;;15.40;;
26277;SDS011;14000;52.056;8.510;2023-01-20T12:01:57;32.50;;;16.13;;
26277;SDS011;14000;52.056;8.510;2023-01-20T12:07:41;30.27;;;15.13;;
26277;SDS011;14000;52.056;8.510;2023-01-20T12:10:17;33.23;;;16.67;;
26277;SDS011;14000;52.056;8.510;2023-01-20T12:12:51;35.40;;;16.73;;
26277;SDS011;14000;52.056;8.510;2023-01-20T12:15:23;31.43;;;17.10;;
26277;SDS011;14000;52.056;8.510;2023-01-20T12:18:09;31.17;;;15.23;;
26277;SDS011;14000;52.056;8.510;2023-01-20T12:20:56;28.83;;;13.33;;
26277;SDS011;14000;52.056;8.510;2023-01-20T12:23:46;29.60;;;14.90;;
26277;SDS011;14000;52.056;8.510;2023-01-20T12:26:20;28.30;;;14.60;;
26277;SDS011;14000;52.056;8.510;2023-01-20T12:31:18;31.57;;;14.37;;
26277;SDS011;14000;52.056;8.510;2023-01-20T12:33:48;24.60;;;12.53;;
26277;SDS011;14000;52.056;8.510;2023-01-20T12:58:33;26.23;;;12.90;;
26277;SDS011;14000;52.056;8.510;2023-01-20T13:10:15;27.40;;;13.97;;
26277;SDS011;14000;52.056;8.510;2023-01-20T13:13:11;26.27;;;12.27;;
26277;SDS011;14000;52.056;8.510;2023-01-20T13:15:47;26.97;;;11.70;;
26277;SDS011;14000;52.056;8.510;2023-01-20T13:18:29;23.30;;;11.70;;
26277;SDS011;14000;52.056;8.510;2023-01-20T13:21:02;24.10;;;11.67;;
26277;SDS011;14000;52.056;8.510;2023-01-20T13:23:28;23.00;;;11.70;;
26277;SDS011;14000;52.056;8.510;2023-01-20T13:25:57;21.63;;;10.93;;
26277;SDS011;14000;52.056;8.510;2023-01-20T13:28:25;20.23;;;10.07;;
26277;SDS011;14000;52.056;8.510;2023-01-20T13:30:53;23.97;;;10.40;;
26277;SDS011;14000;52.056;8.510;2023-01-20T13:33:33;22.43;;;10.70;;
26277;SDS011;14000;52.056;8.510;2023-01-20T13:36:12;23.50;;;11.57;;
26277;SDS011;14000;52.056;8.510;2023-01-20T13:38:37;21.47;;;10.83;;
26277;SDS011;14000;52.056;8.510;2023-01-20T13:41:03;22.90;;;10.97;;
26277;SDS011;14000;52.056;8.510;2023-01-20T13:48:43;26.20;;;12.53;;
26277;SDS011;14000;52.056;8.510;2023-01-20T13:51:47;22.80;;;10.90;;
26277;SDS011;14000;52.056;8.510;2023-01-20T13:56:59;26.00;;;13.23;;
26277;SDS011;14000;52.056;8.510;2023-01-20T13:59:44;26.70;;;12.60;;
26277;SDS011;14000;52.056;8.510;2023-01-20T14:02:23;28.00;;;12.40;;
26277;SDS011;14000;52.056;8.510;2023-01-20T14:04:50;26.23;;;12.57;;
26277;SDS011;14000;52.056;8.510;2023-01-20T14:07:22;25.97;;;11.87;;
26277;SDS011;14000;52.056;8.510;2023-01-20T14:09:52;25.93;;;12.53;;
26277;SDS011;14000;52.056;8.510;2023-01-20T14:12:19;23.67;;;11.47;;
26277;SDS011;14000;52.056;8.510;2023-01-20T14:14:45;25.97;;;12.23;;
26277;SDS011;14000;52.056;8.510;2023-01-20T14:17:16;26.73;;;14.53;;
26277;SDS011;14000;52.056;8.510;2023-01-20T14:19:48;24.97;;;13.87;;
26277;SDS011;14000;52.056;8.510;2023-01-20T14:24:45;32.33;;;15.27;;
26277;SDS011;14000;52.056;8.510;2023-01-20T14:29:46;28.90;;;13.87;;
26277;SDS011;14000;52.056;8.510;2023-01-20T14:32:26;24.20;;;13.13;;
26277;SDS011;14000;52.056;8.510;2023-01-20T14:34:56;22.53;;;11.80;;
26277;SDS011;14000;52.056;8.510;2023-01-20T14:37:35;25.23;;;12.53;;
26277;SDS011;14000;52.056;8.510;2023-01-20T14:40:13;23.60;;;12.17;;
26277;SDS011;14000;52.056;8.510;2023-01-20T14:42:57;23.07;;;11.30;;
26277;SDS011;14000;52.056;8.510;2023-01-20T14:45:27;22.50;;;11.27;;
26277;SDS011;14000;52.056;8.510;2023-01-20T14:47:55;21.27;;;11.77;;
26277;SDS011;14000;52.056;8.510;2023-01-20T14:50:23;21.30;;;9.80;;
26277;SDS011;14000;52.056;8.510;2023-01-20T14:52:49;26.37;;;12.90;;
26277;SDS011;14000;52.056;8.510;2023-01-20T14:55:34;21.43;;;11.33;;
26277;SDS011;14000;52.056;8.510;2023-01-20T14:58:07;23.07;;;12.90;;
26277;SDS011;14000;52.056;8.510;2023-01-20T15:00:42;20.77;;;11.40;;
26277;SDS011;14000;52.056;8.510;2023-01-20T15:03:22;23.70;;;11.63;;
26277;SDS011;14000;52.056;8.510;2023-01-20T15:05:52;22.70;;;10.83;;
26277;SDS011;14000;52.056;8.510;2023-01-20T15:08:21;21.60;;;10.10;;
26277;SDS011;14000;52.056;8.510;2023-01-20T15:11:39;20.47;;;10.20;;
26277;SDS011;14000;52.056;8.510;2023-01-20T15:21:37;18.20;;;9.20;;
26277;SDS011;14000;52.056;8.510;2023-01-20T15:24:05;20.23;;;10.80;;
26277;SDS011;14000;52.056;8.510;2023-01-20T15:26:41;19.40;;;9.17;;
26277;SDS011;14000;52.056;8.510;2023-01-20T15:32:10;18.17;;;8.83;;
26277;SDS011;14000;52.056;8.510;2023-01-20T15:34:36;21.83;;;10.23;;
26277;SDS011;14000;52.056;8.510;2023-01-20T15:37:01;18.73;;;9.70;;
26277;SDS011;14000;52.056;8.510;2023-01-20T15:39:38;22.17;;;10.57;;
26277;SDS011;14000;52.056;8.510;2023-01-20T15:42:04;22.47;;;12.37;;
26277;SDS011;14000;52.056;8.510;2023-01-20T15:44:33;23.43;;;12.53;;
26277;SDS011;14000;52.056;8.510;2023-01-20T15:46:59;32.30;;;17.20;;
26277;SDS011;14000;52.056;8.510;2023-01-20T15:49:24;29.53;;;16.27;;
26277;SDS011;14000;52.056;8.510;2023-01-20T15:51:50;28.73;;;15.17;;
26277;SDS011;14000;52.056;8.510;2023-01-20T15:54:16;30.37;;;14.33;;
26277;SDS011;14000;52.056;8.510;2023-01-20T15:56:42;25.93;;;13.77;;
26277;SDS011;14000;52.056;8.510;2023-01-20T15:59:15;29.33;;;13.63;;
26277;SDS011;14000;52.056;8.510;2023-01-20T16:01:44;29.43;;;13.60;;
26277;SDS011;14000;52.056;8.510;2023-01-20T16:04:11;37.17;;;20.23;;
26277;SDS011;14000;52.056;8.510;2023-01-20T16:06:36;37.57;;;19.20;;
26277;SDS011;14000;52.056;8.510;2023-01-20T16:09:11;39.00;;;21.10;;
26277;SDS011;14000;52.056;8.510;2023-01-20T16:11:49;35.90;;;19.47;;
26277;SDS011;14000;52.056;8.510;2023-01-20T16:14:14;33.80;;;17.23;;
26277;SDS011;14000;52.056;8.510;2023-01-20T16:16:43;34.73;;;17.47;;
26277;SDS011;14000;52.056;8.510;2023-01-20T16:19:11;52.40;;;26.90;;
26277;SDS011;14000;52.056;8.510;2023-01-20T16:21:37;63.53;;;34.67;;
26277;SDS011;14000;52.056;8.510;2023-01-20T16:24:03;58.17;;;30.60;;
26277;SDS011;14000;52.056;8.510;2023-01-20T16:26:30;52.63;;;25.30;;
26277;SDS011;14000;52.056;8.510;2023-01-20T16:28:57;43.07;;;22.13;;
26277;SDS011;14000;52.056;8.510;2023-01-20T16:31:23;40.37;;;20.67;;
26277;SDS011;14000;52.056;8.510;2023-01-20T16:33:53;36.27;;;19.03;;